Bookmark and Share
Track history (hours):
 

Hiyodori

Last reported at 2014-Apr-22 16:04 UTC. Time now 2014-Apr-23 09:37 UTC.
Position N 35°01' E 138°31'.

Length 88 m; draft 3.6 m.

Type: Cargo ship. MMSI: 431000132.

NotesDate/timePositionNaut miles runAvg speedWind from/ knotsBaromVisibWave heightAir tempDewpointWater temp
2014-Apr-22 16:04N 35°01' E 138°31'33 7.4
2014-Apr-22 11:31N 34°51' E 139°10'1211.8
2014-Apr-22 10:28N 34°58' E 139°22'1111.9
2014-Apr-22 09:33N 35°03' E 139°33'1211.9
2014-Apr-22 08:33N 35°10' E 139°45'1111.0
2014-Apr-22 07:33N 35°21' E 139°42'3 3.1
2014-Apr-22 06:33N 35°24' E 139°41'0 0.0
2014-Apr-22 05:33N 35°24' E 139°41'0 0.0
2014-Apr-22 04:33N 35°24' E 139°41'2 2.4
2014-Apr-22 03:33N 35°22' E 139°42'1211.8
2014-Apr-22 02:32N 35°10' E 139°46'1212.3
2014-Apr-22 01:33N 35°01' E 139°37'55 7.7
2014-Apr-21 18:31N 35°02' E 138°30'0 0.0
2014-Apr-21 17:33N 35°02' E 138°30'0 0.0
2014-Apr-21 16:33N 35°02' E 138°30'0 0.0
2014-Apr-21 15:33N 35°02' E 138°30'0 0.0
2014-Apr-21 14:29N 35°02' E 138°30'0 0.0
2014-Apr-21 13:26N 35°02' E 138°30'0 0.0
2014-Apr-21 12:33N 35°02' E 138°30'44 0.9
2014-Apr-19 13:31N 34°58' E 139°24'1414.6
2014-Apr-19 12:34N 35°05' E 139°38'1312.9
2014-Apr-19 11:33N 35°16' E 139°46'9 8.8
2014-Apr-19 10:33N 35°24' E 139°41'0 0.0
2014-Apr-19 09:29N 35°24' E 139°41'0 0.0
2014-Apr-19 08:33N 35°24' E 139°41'0 0.0
2014-Apr-19 07:31N 35°24' E 139°41'0 0.0
2014-Apr-19 06:33N 35°24' E 139°41'1 0.9
2014-Apr-19 05:33N 35°23' E 139°40'3 3.4
2014-Apr-19 04:32N 35°22' E 139°44'0 0.0
2014-Apr-19 03:33N 35°22' E 139°44'0 0.0
2014-Apr-19 02:32N 35°22' E 139°44'1 1.0
2014-Apr-19 01:33N 35°22' E 139°44'10 9.8
2014-Apr-19 00:33N 35°12' E 139°47'1010.3
2014-Apr-18 23:33N 35°03' E 139°42'1110.8
2014-Apr-18 22:31N 34°56' E 139°31'229 6.0
2014-Apr-17 08:31N 34°03' E 135°00'1212.8
2014-Apr-17 07:33N 34°15' E 134°59'1111.5
2014-Apr-17 06:33N 34°26' E 135°05'1312.7
2014-Apr-17 05:33N 34°35' E 135°15'5 5.5
2014-Apr-17 04:33N 34°41' E 135°16'0 0.0
2014-Apr-17 03:33N 34°41' E 135°16'0 0.0
2014-Apr-17 02:33N 34°41' E 135°16'0 0.0
2014-Apr-17 01:33N 34°41' E 135°16'0 0.0
2014-Apr-17 00:33N 34°41' E 135°16'0 0.0
2014-Apr-16 23:30N 34°41' E 135°16'4 4.3
2014-Apr-16 22:33N 34°38' E 135°19'0 0.0
2014-Apr-16 21:15N 34°38' E 135°19'0 0.0
2014-Apr-16 20:33N 34°38' E 135°19'0 0.0
2014-Apr-16 17:21N 34°38' E 135°19'0 0.1
2014-Apr-16 16:33N 34°38' E 135°19'0 0.1
2014-Apr-16 15:27N 34°38' E 135°19'0 0.1
2014-Apr-16 14:33N 34°38' E 135°19'0 0.0
2014-Apr-16 13:25N 34°38' E 135°19'910.3
2014-Apr-16 12:33N 34°31' E 135°13'1813.0
2014-Apr-16 11:10N 34°17' E 134°59'812.9
2014-Apr-16 10:33N 34°09' E 134°59'224 8.6
2014-Apr-15 08:34N 34°59' E 139°25'9 9.4
2014-Apr-15 07:34N 35°04' E 139°34'9 9.2
2014-Apr-15 06:34N 35°09' E 139°44'9 8.9
2014-Apr-15 05:33N 35°18' E 139°44'6 3.2
2014-Apr-15 03:34N 35°24' E 139°41'1 0.9
2014-Apr-15 02:34N 35°23' E 139°40'0 0.0
2014-Apr-15 01:32N 35°23' E 139°40'3 3.0
2014-Apr-15 00:34N 35°22' E 139°43'1111.4
2014-Apr-14 23:34N 35°11' E 139°47'1211.8
2014-Apr-14 22:34N 35°01' E 139°38'  

Dump ship's entire track history

sailing weather and tide predictions

Hiyodori — JD2366 — position and weather